createdAt,value
2022-10-01T00:00:47.867Z,64.80
2022-10-01T00:03:14.488Z,64.59
2022-10-01T00:05:40.888Z,64.57
2022-10-01T00:08:07.280Z,64.58
2022-10-01T00:10:33.929Z,64.12
2022-10-01T00:13:00.621Z,64.15
2022-10-01T00:15:27.125Z,64.19
2022-10-01T00:17:53.749Z,64.17
2022-10-01T00:20:20.580Z,64.18
2022-10-01T00:22:47.373Z,64.08
2022-10-01T00:25:13.734Z,64.35
2022-10-01T00:27:40.858Z,64.04
2022-10-01T00:30:07.920Z,64.25
2022-10-01T00:32:34.245Z,64.20
2022-10-01T00:35:00.936Z,64.48
2022-10-01T00:37:27.404Z,64.43
2022-10-01T00:39:53.991Z,64.64
2022-10-01T00:42:26.791Z,64.65
2022-10-01T00:44:56.374Z,64.65
2022-10-01T00:47:36.143Z,64.75
2022-10-01T00:50:09.792Z,64.77
2022-10-01T00:52:40.727Z,64.76
2022-10-01T00:55:12.259Z,64.87
2022-10-01T00:57:40.112Z,65.18
2022-10-01T01:00:10.062Z,65.21
2022-10-01T01:02:36.993Z,65.19
2022-10-01T01:05:04.792Z,65.11
2022-10-01T01:07:33.749Z,65.32
2022-10-01T01:10:01.831Z,65.43
2022-10-01T01:12:52.919Z,66.14
2022-10-01T01:15:24.956Z,65.73
2022-10-01T01:17:59.119Z,65.83
2022-10-01T01:21:00.003Z,65.88
2022-10-01T01:23:46.954Z,65.70
2022-10-01T01:26:48.049Z,66.04
2022-10-01T01:29:38.281Z,65.54
2022-10-01T01:32:14.991Z,65.67
2022-10-01T01:34:48.961Z,65.37
2022-10-01T01:37:18.458Z,65.18
2022-10-01T01:39:50.775Z,65.09
2022-10-01T01:42:31.144Z,65.34
2022-10-01T01:45:00.935Z,65.22
2022-10-01T01:47:30.433Z,65.28
2022-10-01T01:49:58.404Z,64.71
2022-10-01T01:52:25.006Z,64.69
2022-10-01T01:54:51.610Z,64.58
2022-10-01T01:57:19.849Z,64.85
2022-10-01T01:59:47.092Z,64.98
2022-10-01T02:02:17.451Z,64.71
2022-10-01T02:04:48.912Z,65.01
2022-10-01T02:07:16.134Z,64.53
2022-10-01T02:09:54.994Z,65.21
2022-10-01T02:13:03.373Z,64.99
2022-10-01T02:15:48.109Z,65.08
2022-10-01T02:18:37.395Z,64.92
2022-10-01T02:21:07.020Z,65.17
2022-10-01T02:23:42.918Z,64.90
2022-10-01T02:26:16.037Z,65.04
2022-10-01T02:28:44.508Z,64.57
2022-10-01T02:31:12.766Z,64.75
2022-10-01T02:33:41.863Z,64.82
2022-10-01T02:36:10.974Z,64.87
2022-10-01T02:38:41.815Z,64.81
2022-10-01T02:41:11.638Z,64.42
2022-10-01T02:43:50.183Z,64.47
2022-10-01T02:46:28.406Z,64.43
2022-10-01T02:48:56.708Z,64.41
2022-10-01T02:51:33.302Z,64.85
2022-10-01T02:54:09.268Z,64.29
2022-10-01T02:56:56.343Z,64.44
2022-10-01T02:59:22.831Z,64.38
2022-10-01T03:01:49.368Z,64.58
2022-10-01T03:04:15.828Z,64.07
2022-10-01T03:06:42.153Z,63.84
2022-10-01T03:09:08.742Z,63.88
2022-10-01T03:11:35.504Z,63.86
2022-10-01T03:14:02.998Z,63.89
2022-10-01T03:16:29.402Z,63.78
2022-10-01T03:18:56.005Z,63.81
2022-10-01T03:21:22.368Z,63.85
2022-10-01T03:23:49.026Z,63.93
2022-10-01T03:26:15.453Z,63.76
2022-10-01T03:28:41.825Z,63.46
2022-10-01T03:31:10.032Z,63.54
2022-10-01T03:33:36.769Z,63.94
2022-10-01T03:36:04.364Z,63.36
2022-10-01T03:38:31.246Z,63.71
2022-10-01T03:40:57.984Z,63.53
2022-10-01T03:43:24.496Z,64.14
2022-10-01T03:45:50.981Z,64.60
2022-10-01T03:48:18.230Z,64.94
2022-10-01T03:50:53.613Z,65.93
2022-10-01T03:53:20.179Z,66.51
2022-10-01T03:55:46.493Z,67.73
2022-10-01T03:58:12.847Z,68.73
2022-10-01T04:00:39.364Z,69.62
2022-10-01T04:03:06.776Z,70.78
2022-10-01T04:05:33.669Z,71.34
2022-10-01T04:08:00.625Z,72.26
2022-10-01T04:10:26.972Z,72.48
2022-10-01T04:12:55.509Z,73.69
2022-10-01T04:15:22.767Z,74.18
2022-10-01T04:17:49.425Z,74.82
2022-10-01T04:20:15.783Z,75.29
2022-10-01T04:22:42.928Z,76.52
2022-10-01T04:25:10.860Z,77.08
2022-10-01T04:27:41.837Z,78.24
2022-10-01T04:30:09.853Z,78.60
2022-10-01T04:32:37.334Z,78.79
2022-10-01T04:35:04.461Z,79.32
2022-10-01T04:37:31.245Z,79.80
2022-10-01T04:39:57.582Z,80.05
2022-10-01T04:42:23.917Z,80.58
2022-10-01T04:44:50.855Z,81.08
2022-10-01T04:47:17.369Z,81.28
2022-10-01T04:49:43.742Z,81.21
2022-10-01T04:52:11.316Z,81.52
2022-10-01T04:54:39.018Z,81.33
2022-10-01T04:57:05.420Z,81.34
2022-10-01T04:59:32.183Z,81.75
2022-10-01T05:01:58.673Z,81.48
2022-10-01T05:04:25.090Z,82.25
2022-10-01T05:06:51.639Z,82.46
2022-10-01T05:09:17.982Z,82.50
2022-10-01T05:11:44.387Z,82.57
2022-10-01T05:14:11.932Z,83.12
2022-10-01T05:16:38.403Z,82.86
2022-10-01T05:19:04.943Z,83.34
2022-10-01T05:21:32.103Z,83.38
2022-10-01T05:23:58.711Z,83.74
2022-10-01T05:26:25.245Z,83.82
2022-10-01T05:28:51.639Z,83.72
2022-10-01T05:31:18.899Z,84.45
2022-10-01T05:33:45.467Z,84.65
2022-10-01T05:36:11.961Z,84.96
2022-10-01T05:38:38.653Z,85.25
2022-10-01T05:41:05.212Z,85.75
2022-10-01T05:43:31.917Z,85.94
2022-10-01T05:46:02.325Z,86.28
2022-10-01T05:48:29.262Z,86.40
2022-10-01T05:50:55.602Z,86.61
2022-10-01T05:53:23.482Z,86.60
2022-10-01T05:55:49.849Z,87.12
2022-10-01T05:58:16.341Z,87.35
2022-10-01T06:00:43.523Z,87.99
2022-10-01T06:03:12.824Z,88.36
2022-10-01T06:05:39.826Z,88.13
2022-10-01T06:08:07.208Z,88.78
2022-10-01T06:10:33.938Z,88.70
2022-10-01T06:13:01.793Z,89.24
2022-10-01T06:15:29.394Z,89.06
2022-10-01T06:17:55.879Z,89.26
2022-10-01T06:20:22.257Z,89.63
2022-10-01T06:22:57.053Z,89.94
2022-10-01T06:25:24.495Z,89.45
2022-10-01T06:27:56.514Z,90.15
2022-10-01T06:30:23.665Z,90.16
2022-10-01T06:32:50.045Z,90.19
2022-10-01T06:35:16.414Z,90.23
2022-10-01T06:37:42.757Z,90.15
2022-10-01T06:40:09.751Z,90.25
2022-10-01T06:42:36.170Z,90.24
2022-10-01T06:45:02.797Z,90.51
2022-10-01T06:47:29.337Z,90.27
2022-10-01T06:49:55.657Z,90.52
2022-10-01T06:52:40.750Z,90.25
2022-10-01T06:55:07.657Z,90.12
2022-10-01T06:57:34.348Z,90.30
2022-10-01T07:00:00.859Z,90.14
2022-10-01T07:02:28.848Z,90.21
2022-10-01T07:04:59.008Z,90.33
2022-10-01T07:07:32.983Z,91.02
2022-10-01T07:09:59.522Z,90.35
2022-10-01T07:12:26.535Z,90.54
2022-10-01T07:14:53.843Z,90.56
2022-10-01T07:17:21.125Z,90.65
2022-10-01T07:19:47.616Z,90.76
2022-10-01T07:22:14.010Z,90.82
2022-10-01T07:24:40.432Z,90.74
2022-10-01T07:27:07.595Z,90.85
2022-10-01T07:29:34.317Z,91.01
2022-10-01T07:32:01.774Z,91.04
2022-10-01T07:34:31.120Z,91.44
2022-10-01T07:36:57.510Z,91.37
2022-10-01T07:39:24.185Z,91.42
2022-10-01T07:41:51.484Z,91.55
2022-10-01T07:44:18.949Z,91.34
2022-10-01T07:46:46.291Z,91.54
2022-10-01T07:49:12.960Z,91.61
2022-10-01T07:51:39.421Z,91.65
2022-10-01T07:54:05.890Z,91.73
2022-10-01T07:56:32.353Z,91.85
2022-10-01T07:58:59.042Z,91.84
2022-10-01T08:01:25.895Z,91.77
2022-10-01T08:03:52.815Z,92.35
2022-10-01T08:06:25.321Z,92.66
2022-10-01T08:08:52.741Z,92.64
2022-10-01T08:11:19.146Z,92.37
2022-10-01T08:13:48.098Z,92.33
2022-10-01T08:16:15.797Z,92.60
2022-10-01T08:18:42.218Z,92.88
2022-10-01T08:21:09.251Z,93.20
2022-10-01T08:23:36.286Z,93.33
2022-10-01T08:26:06.923Z,93.53
2022-10-01T08:28:34.786Z,93.51
2022-10-01T08:31:07.486Z,93.99
2022-10-01T08:33:34.815Z,93.94
2022-10-01T08:36:02.971Z,93.88
2022-10-01T08:38:29.491Z,93.91
2022-10-01T08:40:57.338Z,94.21
2022-10-01T08:43:30.817Z,94.59
2022-10-01T08:46:02.241Z,94.43
2022-10-01T08:48:56.809Z,95.48
2022-10-01T08:51:32.639Z,94.57
2022-10-01T08:54:09.047Z,94.95
2022-10-01T08:56:40.374Z,94.78
2022-10-01T08:59:26.637Z,95.76
2022-10-01T09:01:55.975Z,95.11
2022-10-01T09:04:23.624Z,95.31
2022-10-01T09:06:59.428Z,95.72
2022-10-01T09:09:45.283Z,96.56
2022-10-01T09:12:26.555Z,95.42
2022-10-01T09:15:10.475Z,96.63
2022-10-01T09:18:12.433Z,96.04
2022-10-01T09:20:47.712Z,96.53
2022-10-01T09:23:26.559Z,96.60
2022-10-01T09:25:53.242Z,96.33
2022-10-01T09:28:23.084Z,96.66
2022-10-01T09:31:00.149Z,97.14
2022-10-01T09:33:40.900Z,98.16
2022-10-01T09:36:23.476Z,97.69
2022-10-01T09:39:09.902Z,98.30
2022-10-01T09:41:36.693Z,97.32
2022-10-01T09:44:03.820Z,97.46
2022-10-01T09:46:30.376Z,97.63
2022-10-01T09:49:02.946Z,98.03
2022-10-01T09:51:39.436Z,98.52
2022-10-01T09:54:19.238Z,99.40
2022-10-01T09:56:51.150Z,99.11
2022-10-01T09:59:23.876Z,99.04
2022-10-01T10:01:53.874Z,98.53
2022-10-01T10:04:23.515Z,98.44
2022-10-01T10:06:53.210Z,98.41
2022-10-01T10:09:28.010Z,98.74
2022-10-01T10:11:56.621Z,98.16
2022-10-01T10:14:33.882Z,99.00
2022-10-01T10:17:17.971Z,98.06
2022-10-01T10:19:52.360Z,97.20
2022-10-01T10:22:24.809Z,97.10
2022-10-01T10:24:53.381Z,97.02
2022-10-01T10:27:30.089Z,97.45
2022-10-01T10:30:14.770Z,97.91
2022-10-01T10:32:43.325Z,96.85
2022-10-01T10:35:14.932Z,96.40
2022-10-01T10:37:50.765Z,94.67
2022-10-01T10:40:24.608Z,92.44
2022-10-01T10:42:56.149Z,90.64
2022-10-01T10:45:38.718Z,90.81
2022-10-01T10:48:12.194Z,89.19
2022-10-01T10:50:41.039Z,88.81
2022-10-01T10:53:22.636Z,88.22
2022-10-01T10:56:01.428Z,88.00
2022-10-01T10:58:30.034Z,87.77
2022-10-01T11:01:01.107Z,88.00
2022-10-01T11:03:30.918Z,88.03
2022-10-01T11:06:08.888Z,86.92
2022-10-01T11:08:35.774Z,85.60
2022-10-01T11:11:02.184Z,86.36
2022-10-01T11:13:58.306Z,87.42
2022-10-01T11:16:51.964Z,85.55
2022-10-01T11:19:40.144Z,85.82
2022-10-01T11:22:37.050Z,83.84
2022-10-01T11:25:47.839Z,79.16
2022-10-01T11:28:29.373Z,77.16
2022-10-01T11:31:10.503Z,75.82
2022-10-01T11:33:46.470Z,76.54
2022-10-01T11:36:34.187Z,76.97
2022-10-01T11:39:02.941Z,75.82
2022-10-01T11:41:35.282Z,75.97
2022-10-01T11:44:16.504Z,76.97
2022-10-01T11:47:00.768Z,75.62
2022-10-01T11:49:45.259Z,75.35
2022-10-01T11:52:20.465Z,75.08
2022-10-01T11:55:31.370Z,73.85
2022-10-01T11:58:31.523Z,74.87
2022-10-01T12:01:05.843Z,74.84
2022-10-01T12:03:52.882Z,76.50
2022-10-01T12:06:43.283Z,75.42
2022-10-01T12:09:15.938Z,74.07
2022-10-01T12:11:54.355Z,71.29
2022-10-01T12:14:27.096Z,67.88
2022-10-01T12:17:04.314Z,68.87
2022-10-01T12:19:37.179Z,66.99
2022-10-01T12:22:03.458Z,66.27
2022-10-01T12:24:36.339Z,65.85
2022-10-01T12:27:23.531Z,65.68
2022-10-01T12:30:08.116Z,66.04
2022-10-01T12:33:07.329Z,64.68
2022-10-01T12:35:39.832Z,64.20
2022-10-01T12:38:21.430Z,64.55
2022-10-01T12:41:42.237Z,64.78
2022-10-01T12:44:34.256Z,66.00
2022-10-01T12:47:23.463Z,64.78
2022-10-01T12:50:20.941Z,65.48
2022-10-01T12:53:15.339Z,65.21
2022-10-01T12:55:48.658Z,65.57
2022-10-01T12:58:15.327Z,66.23
2022-10-01T13:00:55.308Z,67.23
2022-10-01T13:03:52.723Z,67.41
2022-10-01T13:06:35.094Z,67.67
2022-10-01T13:09:17.288Z,68.23
2022-10-01T13:12:09.229Z,69.05
2022-10-01T13:14:36.635Z,68.46
2022-10-01T13:17:13.317Z,69.28
2022-10-01T13:19:57.864Z,71.40
2022-10-01T13:22:46.168Z,72.15
2022-10-01T13:25:30.595Z,74.07
2022-10-01T13:28:11.857Z,76.58
2022-10-01T13:31:12.851Z,77.76
2022-10-01T13:33:39.505Z,78.49
2022-10-01T13:36:08.195Z,80.10
2022-10-01T13:38:47.612Z,81.80
2022-10-01T13:41:21.447Z,83.40
2022-10-01T13:43:56.842Z,83.93
2022-10-01T13:46:28.424Z,85.28
2022-10-01T13:48:55.669Z,85.67
2022-10-01T13:51:22.395Z,86.51
2022-10-01T13:53:57.972Z,87.51
2022-10-01T13:56:32.611Z,87.92
2022-10-01T13:58:59.615Z,88.46
2022-10-01T14:01:31.304Z,88.64
2022-10-01T14:04:21.992Z,88.93
2022-10-01T14:07:03.114Z,88.50
2022-10-01T14:09:35.032Z,89.79
2022-10-01T14:12:35.419Z,91.49
2022-10-01T14:15:58.157Z,92.18
2022-10-01T14:18:29.117Z,90.91
2022-10-01T14:21:25.872Z,90.62
2022-10-01T14:24:14.208Z,89.43
2022-10-01T14:26:54.342Z,87.87
2022-10-01T14:29:35.860Z,86.18
2022-10-01T14:32:11.349Z,83.56
2022-10-01T14:34:58.029Z,84.23
2022-10-01T14:37:24.811Z,83.20
2022-10-01T14:40:26.138Z,82.10
2022-10-01T14:43:03.229Z,80.27
2022-10-01T14:45:30.279Z,77.46
2022-10-01T14:48:05.239Z,79.55
2022-10-01T14:50:34.953Z,78.05
2022-10-01T14:53:01.556Z,75.15
2022-10-01T14:55:29.396Z,73.95
2022-10-01T14:57:57.598Z,73.56
2022-10-01T15:00:27.879Z,74.98
2022-10-01T15:03:18.864Z,75.29
2022-10-01T15:05:49.036Z,73.61
2022-10-01T15:08:22.339Z,73.07
2022-10-01T15:11:02.493Z,73.76
2022-10-01T15:13:40.127Z,73.32
2022-10-01T15:16:27.812Z,76.34
2022-10-01T15:18:56.554Z,76.05
2022-10-01T15:21:38.004Z,76.40
2022-10-01T15:24:07.245Z,76.16
2022-10-01T15:26:34.409Z,76.68
2022-10-01T15:29:04.232Z,77.14
2022-10-01T15:31:32.277Z,77.50
2022-10-01T15:34:02.837Z,78.70
2022-10-01T15:36:29.385Z,78.65
2022-10-01T15:38:56.590Z,79.07
2022-10-01T15:41:32.521Z,79.69
2022-10-01T15:44:03.825Z,79.99
2022-10-01T15:46:34.977Z,80.53
2022-10-01T15:49:21.417Z,81.21
2022-10-01T15:52:14.388Z,81.59
2022-10-01T15:54:43.253Z,81.61
2022-10-01T15:57:28.148Z,81.99
2022-10-01T15:59:56.878Z,82.27
2022-10-01T16:02:27.832Z,82.67
2022-10-01T16:04:56.795Z,82.73
2022-10-01T16:07:29.644Z,83.58
2022-10-01T16:09:59.162Z,83.15
2022-10-01T16:12:29.327Z,83.25
2022-10-01T16:15:00.199Z,82.46
2022-10-01T16:17:29.868Z,82.98
2022-10-01T16:19:59.289Z,83.04
2022-10-01T16:22:29.583Z,83.02
2022-10-01T16:25:03.682Z,82.59
2022-10-01T16:27:47.396Z,82.61
2022-10-01T16:30:21.327Z,82.27
2022-10-01T16:32:47.938Z,81.62
2022-10-01T16:35:28.883Z,82.49
2022-10-01T16:37:58.016Z,82.24
2022-10-01T16:40:33.663Z,82.48
2022-10-01T16:43:01.065Z,81.92
2022-10-01T16:45:33.522Z,81.99
2022-10-01T16:48:00.738Z,81.45
2022-10-01T16:50:27.564Z,81.29
2022-10-01T16:52:55.688Z,81.14
2022-10-01T16:55:24.893Z,81.09
2022-10-01T16:57:54.581Z,81.20
2022-10-01T17:00:23.824Z,81.14
2022-10-01T17:02:50.384Z,81.23
2022-10-01T17:05:28.422Z,81.58
2022-10-01T17:08:03.623Z,82.02
2022-10-01T17:10:32.248Z,82.38
2022-10-01T17:12:59.644Z,82.44
2022-10-01T17:15:28.041Z,83.17
2022-10-01T17:17:55.786Z,83.17
2022-10-01T17:20:23.686Z,83.32
2022-10-01T17:22:51.756Z,83.45
2022-10-01T17:25:21.130Z,84.09
2022-10-01T17:27:48.391Z,84.11
2022-10-01T17:30:15.953Z,84.27
2022-10-01T17:32:43.408Z,84.88
2022-10-01T17:35:11.497Z,85.27
2022-10-01T17:37:37.991Z,85.52
2022-10-01T17:40:05.838Z,86.19
2022-10-01T17:42:34.426Z,85.79
2022-10-01T17:45:01.803Z,86.39
2022-10-01T17:47:28.733Z,86.59
2022-10-01T17:49:55.637Z,86.84
2022-10-01T17:52:22.388Z,86.96
2022-10-01T17:54:49.138Z,87.07
2022-10-01T17:57:15.895Z,87.33
2022-10-01T17:59:42.616Z,87.29
2022-10-01T18:02:36.648Z,87.58
2022-10-01T18:04:58.835Z,87.36
2022-10-01T18:07:26.188Z,87.93
2022-10-01T18:09:53.946Z,87.84
2022-10-01T18:12:20.874Z,88.31
2022-10-01T18:14:48.648Z,88.14
2022-10-01T18:17:15.307Z,88.07
2022-10-01T18:19:57.106Z,88.39
2022-10-01T18:22:23.879Z,88.51
2022-10-01T18:24:50.313Z,88.80
2022-10-01T18:27:16.861Z,88.46
2022-10-01T18:29:43.300Z,88.64
2022-10-01T18:32:19.263Z,89.09
2022-10-01T18:35:00.176Z,88.66
2022-10-01T18:37:40.397Z,87.97
2022-10-01T18:40:16.121Z,87.41
2022-10-01T18:42:45.342Z,87.46
2022-10-01T18:45:26.427Z,87.74
2022-10-01T18:48:08.947Z,87.66
2022-10-01T18:50:46.562Z,87.66
2022-10-01T18:53:34.644Z,88.02
2022-10-01T18:56:20.224Z,88.55
2022-10-01T18:59:17.593Z,88.82
2022-10-01T19:02:03.269Z,88.85
2022-10-01T19:05:05.390Z,88.71
2022-10-01T19:07:58.472Z,88.89
2022-10-01T19:10:31.053Z,88.78
2022-10-01T19:13:22.533Z,89.28
2022-10-01T19:15:49.166Z,88.28
2022-10-01T19:18:29.353Z,88.22
2022-10-01T19:21:19.385Z,89.09
2022-10-01T19:24:07.761Z,88.97
2022-10-01T19:26:49.261Z,89.03
2022-10-01T19:29:36.416Z,88.27
2022-10-01T19:32:12.747Z,88.93
2022-10-01T19:34:44.548Z,88.47
2022-10-01T19:37:36.424Z,89.03
2022-10-01T19:40:23.544Z,89.32
2022-10-01T19:43:01.135Z,89.27
2022-10-01T19:45:42.447Z,88.46
2022-10-01T19:48:41.254Z,88.85
2022-10-01T19:51:12.485Z,87.84
2022-10-01T19:53:43.753Z,87.78
2022-10-01T19:56:16.375Z,87.76
2022-10-01T19:58:43.096Z,87.32
2022-10-01T20:01:17.207Z,86.88
2022-10-01T20:03:51.157Z,86.39
2022-10-01T20:06:26.895Z,86.75
2022-10-01T20:09:00.327Z,86.41
2022-10-01T20:11:36.299Z,86.41
2022-10-01T20:14:40.237Z,86.14
2022-10-01T20:17:36.062Z,86.69
2022-10-01T20:20:36.166Z,87.24
2022-10-01T20:23:34.267Z,86.75
2022-10-01T20:26:09.440Z,87.15
2022-10-01T20:28:42.077Z,86.06
2022-10-01T20:31:20.503Z,87.32
2022-10-01T20:33:52.535Z,87.15
2022-10-01T20:36:26.231Z,87.31
2022-10-01T20:39:22.550Z,87.24
2022-10-01T20:41:53.277Z,86.62
2022-10-01T20:44:25.904Z,86.93
2022-10-01T20:47:05.236Z,86.79
2022-10-01T20:49:43.401Z,87.07
2022-10-01T20:52:41.359Z,87.12
2022-10-01T20:55:18.577Z,86.86
2022-10-01T20:57:50.820Z,87.21
2022-10-01T21:00:28.029Z,86.72
2022-10-01T21:03:11.015Z,86.72
2022-10-01T21:05:58.833Z,87.08
2022-10-01T21:09:02.676Z,87.75
2022-10-01T21:11:39.749Z,87.37
2022-10-01T21:14:27.123Z,87.52
2022-10-01T21:17:29.020Z,87.36
2022-10-01T21:20:13.808Z,87.58
2022-10-01T21:22:52.914Z,87.69
2022-10-01T21:25:41.164Z,88.24
2022-10-01T21:28:41.235Z,88.10
2022-10-01T21:31:13.533Z,87.61
2022-10-01T21:33:58.024Z,87.94
2022-10-01T21:36:45.977Z,87.35
2022-10-01T21:39:20.204Z,88.04
2022-10-01T21:42:10.165Z,88.13
2022-10-01T21:45:00.020Z,88.79
2022-10-01T21:47:50.708Z,88.66
2022-10-01T21:50:32.141Z,88.21
2022-10-01T21:53:28.848Z,89.25
2022-10-01T21:56:13.848Z,89.18
2022-10-01T21:59:14.343Z,89.25
2022-10-01T22:01:43.717Z,88.28
2022-10-01T22:04:19.068Z,88.57
2022-10-01T22:06:51.741Z,88.18
2022-10-01T22:09:44.234Z,88.91
2022-10-01T22:12:12.049Z,87.47
2022-10-01T22:14:40.318Z,87.38
2022-10-01T22:17:17.046Z,87.28
2022-10-01T22:19:49.051Z,87.59
2022-10-01T22:22:33.065Z,87.89
2022-10-01T22:25:00.876Z,87.57
2022-10-01T22:27:31.951Z,88.10
2022-10-01T22:30:20.724Z,89.07
2022-10-01T22:32:56.485Z,88.64
2022-10-01T22:35:28.468Z,88.75
2022-10-01T22:38:25.250Z,89.18
2022-10-01T22:41:08.534Z,88.72
2022-10-01T22:43:35.570Z,88.42
2022-10-01T22:46:13.247Z,88.69
2022-10-01T22:48:44.353Z,89.11
2022-10-01T22:51:24.340Z,88.79
2022-10-01T22:54:17.464Z,89.67
2022-10-01T22:57:03.170Z,90.00
2022-10-01T22:59:43.788Z,89.98
2022-10-01T23:02:35.803Z,89.79
2022-10-01T23:05:31.254Z,89.68
2022-10-01T23:08:03.442Z,89.87
2022-10-01T23:10:51.678Z,90.20
2022-10-01T23:13:52.229Z,90.60
2022-10-01T23:16:37.579Z,90.11
2022-10-01T23:19:22.106Z,89.38
2022-10-01T23:21:51.336Z,89.25
2022-10-01T23:24:46.366Z,90.62
2022-10-01T23:27:33.433Z,90.46
2022-10-01T23:30:16.031Z,90.86
2022-10-01T23:33:00.818Z,90.45
2022-10-01T23:35:42.863Z,90.47
2022-10-01T23:38:37.273Z,91.74
2022-10-01T23:41:19.506Z,92.38
2022-10-01T23:43:49.106Z,92.36
2022-10-01T23:46:30.114Z,93.02
2022-10-01T23:49:03.264Z,92.67
2022-10-01T23:51:42.818Z,93.56
2022-10-01T23:54:09.126Z,92.82
2022-10-01T23:56:50.799Z,93.04
2022-10-01T23:59:32.421Z,93.20
